createdAt,value
2019-02-20T00:01:01.010Z,0.97
2019-02-20T00:03:57.193Z,0.60
2019-02-20T00:06:50.942Z,0.60
2019-02-20T00:09:38.065Z,0.90
2019-02-20T00:12:31.766Z,0.90
2019-02-20T00:15:25.573Z,1.10
2019-02-20T00:18:19.019Z,0.90
2019-02-20T00:21:06.083Z,1.07
2019-02-20T00:24:00.254Z,1.00
2019-02-20T00:26:47.415Z,0.97
2019-02-20T00:29:41.033Z,0.90
2019-02-20T00:32:28.431Z,0.90
2019-02-20T00:35:22.978Z,1.00
2019-02-20T00:38:10.340Z,0.90
2019-02-20T00:41:04.423Z,0.80
2019-02-20T00:43:53.663Z,0.70
2019-02-20T00:46:50.297Z,0.93
2019-02-20T00:49:40.205Z,0.70
2019-02-20T00:52:36.103Z,0.80
2019-02-20T00:55:23.364Z,0.87
2019-02-20T00:58:21.089Z,0.87
2019-02-20T01:01:08.177Z,1.00
2019-02-20T01:04:03.281Z,1.10
2019-02-20T01:06:56.873Z,0.90
2019-02-20T01:09:50.942Z,0.70
2019-02-20T01:12:40.052Z,1.00
2019-02-20T01:15:42.040Z,0.83
2019-02-20T01:18:49.473Z,0.90
2019-02-20T01:21:46.194Z,0.73
2019-02-20T01:24:33.609Z,1.00
2019-02-20T01:27:27.496Z,0.87
2019-02-20T01:30:14.836Z,1.00
2019-02-20T01:33:09.215Z,1.10
2019-02-20T01:35:58.046Z,0.80
2019-02-20T01:38:51.622Z,1.13
2019-02-20T01:41:40.811Z,1.00
2019-02-20T01:44:34.626Z,1.20
2019-02-20T01:47:21.911Z,0.73
2019-02-20T01:50:15.871Z,0.80
2019-02-20T01:53:10.065Z,1.00
2019-02-20T01:55:58.822Z,1.17
2019-02-20T01:58:45.757Z,0.87
2019-02-20T02:01:39.971Z,0.97
2019-02-20T02:04:27.505Z,0.80
2019-02-20T02:07:21.837Z,0.80
2019-02-20T02:10:21.767Z,1.00
2019-02-20T02:13:22.616Z,0.90
2019-02-20T02:16:09.899Z,1.00
2019-02-20T02:19:10.503Z,1.00
2019-02-20T02:22:04.865Z,0.87
2019-02-20T02:24:58.515Z,0.97
2019-02-20T02:27:46.098Z,1.10
2019-02-20T02:30:40.182Z,0.90
2019-02-20T02:33:27.589Z,0.83
2019-02-20T02:36:21.206Z,1.30
2019-02-20T02:39:08.209Z,1.00
2019-02-20T02:42:02.767Z,1.03
2019-02-20T02:44:50.038Z,0.77
2019-02-20T02:47:45.705Z,0.97
2019-02-20T02:50:32.819Z,1.20
2019-02-20T02:53:30.638Z,1.03
2019-02-20T02:56:15.388Z,0.80
2019-02-20T02:59:10.035Z,1.00
2019-02-20T03:01:57.197Z,1.07
2019-02-20T03:04:51.538Z,1.17
2019-02-20T03:08:07.338Z,0.83
2019-02-20T03:10:40.055Z,1.13
2019-02-20T03:13:27.428Z,1.20
2019-02-20T03:16:28.659Z,0.87
2019-02-20T03:19:22.315Z,0.80
2019-02-20T03:22:16.834Z,0.90
2019-02-20T03:25:04.176Z,0.73
2019-02-20T03:27:58.548Z,0.77
2019-02-20T03:30:46.084Z,0.70
2019-02-20T03:33:39.916Z,1.00
2019-02-20T03:36:28.705Z,0.97
2019-02-20T03:39:23.218Z,0.83
2019-02-20T03:42:10.469Z,1.00
2019-02-20T03:45:04.409Z,1.00
2019-02-20T03:47:58.269Z,0.83
2019-02-20T03:50:52.413Z,1.17
2019-02-20T03:53:39.922Z,1.00
2019-02-20T03:56:35.588Z,1.10
2019-02-20T03:59:22.881Z,1.00
2019-02-20T04:02:18.332Z,0.70
2019-02-20T04:05:06.088Z,1.10
2019-02-20T04:07:59.572Z,1.00
2019-02-20T04:10:46.629Z,0.77
2019-02-20T04:13:40.765Z,1.10
2019-02-20T04:16:27.981Z,0.80
2019-02-20T04:19:28.938Z,1.20
2019-02-20T04:22:22.572Z,1.20
2019-02-20T04:25:18.885Z,0.60
2019-02-20T04:28:05.929Z,0.90
2019-02-20T04:30:59.719Z,1.20
2019-02-20T04:33:47.035Z,0.70
2019-02-20T04:36:40.856Z,0.70
2019-02-20T04:39:27.979Z,0.90
2019-02-20T04:42:22.808Z,0.90
2019-02-20T04:45:09.992Z,1.00
2019-02-20T04:48:04.594Z,1.03
2019-02-20T04:50:51.885Z,0.70
2019-02-20T04:53:45.593Z,1.03
2019-02-20T04:56:32.973Z,0.97
2019-02-20T04:59:27.656Z,1.00
2019-02-20T05:02:14.837Z,0.90
2019-02-20T05:05:09.414Z,0.93
2019-02-20T05:07:56.711Z,1.03
2019-02-20T05:10:52.944Z,0.90
2019-02-20T05:13:40.442Z,1.20
2019-02-20T05:16:34.035Z,0.90
2019-02-20T05:19:21.239Z,1.00
2019-02-20T05:22:22.862Z,1.03
2019-02-20T05:25:17.044Z,1.00
2019-02-20T05:28:11.139Z,0.90
2019-02-20T05:30:58.014Z,1.00
2019-02-20T05:33:52.422Z,1.00
2019-02-20T05:36:39.722Z,1.27
2019-02-20T05:39:33.387Z,1.10
2019-02-20T05:42:20.990Z,1.07
2019-02-20T05:45:15.081Z,0.80
2019-02-20T05:48:02.462Z,1.10
2019-02-20T05:50:56.398Z,0.87
2019-02-20T05:53:45.498Z,0.93
2019-02-20T05:56:39.452Z,0.83
2019-02-20T05:59:26.518Z,1.17
2019-02-20T06:02:20.425Z,0.70
2019-02-20T06:05:07.695Z,1.13
2019-02-20T06:08:01.468Z,1.10
2019-02-20T06:10:48.803Z,0.90
2019-02-20T06:13:43.062Z,1.00
2019-02-20T06:16:30.387Z,1.00
2019-02-20T06:19:24.636Z,0.90
2019-02-20T06:22:31.734Z,0.87
2019-02-20T06:25:26.205Z,0.73
2019-02-20T06:28:13.176Z,1.03
2019-02-20T06:31:08.987Z,1.07
2019-02-20T06:33:56.074Z,0.90
2019-02-20T06:36:50.724Z,0.80
2019-02-20T06:39:38.146Z,0.57
2019-02-20T06:42:32.664Z,0.80
2019-02-20T06:45:19.928Z,1.13
2019-02-20T06:48:14.040Z,0.80
2019-02-20T06:51:01.354Z,0.60
2019-02-20T06:53:55.790Z,0.67
2019-02-20T06:56:43.210Z,0.77
2019-02-20T06:59:38.856Z,1.03
2019-02-20T07:02:27.430Z,0.80
2019-02-20T07:05:29.759Z,0.90
2019-02-20T07:08:18.751Z,0.87
2019-02-20T07:11:19.538Z,0.70
2019-02-20T07:14:11.383Z,0.87
2019-02-20T07:17:23.377Z,0.90
2019-02-20T07:20:29.098Z,0.80
2019-02-20T07:23:30.855Z,0.70
2019-02-20T07:26:22.906Z,0.90
2019-02-20T07:29:35.826Z,0.60
2019-02-20T07:32:23.003Z,0.70
2019-02-20T07:35:16.837Z,0.90
2019-02-20T07:38:04.019Z,0.90
2019-02-20T07:40:58.042Z,0.87
2019-02-20T07:43:45.282Z,0.90
2019-02-20T07:46:39.671Z,0.90
2019-02-20T07:49:26.688Z,0.60
2019-02-20T07:52:21.017Z,0.70
2019-02-20T07:55:13.426Z,0.60
2019-02-20T07:58:06.404Z,0.83
2019-02-20T08:00:53.497Z,0.60
2019-02-20T08:03:48.037Z,0.73
2019-02-20T08:06:35.453Z,0.43
2019-02-20T08:09:30.162Z,0.83
2019-02-20T08:12:17.524Z,0.90
2019-02-20T08:15:12.578Z,0.80
2019-02-20T08:18:00.102Z,0.73
2019-02-20T08:20:53.892Z,0.70
2019-02-20T08:23:48.330Z,0.80
2019-02-20T08:26:49.155Z,0.53
2019-02-20T08:29:36.739Z,0.70
2019-02-20T08:32:31.530Z,0.43
2019-02-20T08:35:18.963Z,0.63
2019-02-20T08:38:13.992Z,0.63
2019-02-20T08:41:01.254Z,0.73
2019-02-20T08:43:59.065Z,0.73
2019-02-20T08:46:50.347Z,0.80
2019-02-20T08:49:44.030Z,0.73
2019-02-20T08:52:34.454Z,0.73
2019-02-20T08:55:31.931Z,0.87
2019-02-20T08:58:17.846Z,0.90
2019-02-20T09:01:12.106Z,0.80
2019-02-20T09:03:59.341Z,0.57
2019-02-20T09:06:53.281Z,0.70
2019-02-20T09:09:40.800Z,0.90
2019-02-20T09:12:35.365Z,0.70
2019-02-20T09:15:25.570Z,0.87
2019-02-20T09:18:20.104Z,0.93
2019-02-20T09:21:07.266Z,0.93
2019-02-20T09:24:08.456Z,0.53
2019-02-20T09:27:03.168Z,0.80
2019-02-20T09:29:56.903Z,0.80
2019-02-20T09:32:44.539Z,0.70
2019-02-20T09:35:38.125Z,0.90
2019-02-20T09:38:25.311Z,0.80
2019-02-20T09:41:19.742Z,0.87
2019-02-20T09:44:06.911Z,1.00
2019-02-20T09:47:01.164Z,0.80
2019-02-20T09:49:51.431Z,0.90
2019-02-20T09:52:51.858Z,1.00
2019-02-20T09:55:33.958Z,0.90
2019-02-20T09:58:29.829Z,0.70
2019-02-20T10:01:16.862Z,1.20
2019-02-20T10:04:21.320Z,1.20
2019-02-20T10:07:08.380Z,1.00
2019-02-20T10:10:01.930Z,1.17
2019-02-20T10:12:49.445Z,1.00
2019-02-20T10:15:44.383Z,1.10
2019-02-20T10:18:31.576Z,1.10
2019-02-20T10:21:25.687Z,1.47
2019-02-20T10:24:19.827Z,1.50
2019-02-20T10:27:22.455Z,1.63
2019-02-20T10:30:11.355Z,1.73
2019-02-20T10:33:05.327Z,1.40
2019-02-20T10:35:53.825Z,1.50
2019-02-20T10:38:48.438Z,1.70
2019-02-20T10:41:35.696Z,1.40
2019-02-20T10:44:29.847Z,1.50
2019-02-20T10:47:17.298Z,1.60
2019-02-20T10:50:13.134Z,1.80
2019-02-20T10:53:00.540Z,1.77
2019-02-20T10:55:54.463Z,1.70
2019-02-20T10:58:43.232Z,1.30
2019-02-20T11:01:40.769Z,1.50
2019-02-20T11:04:28.305Z,1.77
2019-02-20T11:07:23.055Z,1.23
2019-02-20T11:10:10.660Z,1.40
2019-02-20T11:13:04.025Z,1.40
2019-02-20T11:15:51.572Z,1.40
2019-02-20T11:18:45.472Z,1.50
2019-02-20T11:21:33.150Z,1.03
2019-02-20T11:24:27.613Z,1.47
2019-02-20T11:27:21.519Z,1.50
2019-02-20T11:30:24.917Z,1.27
2019-02-20T11:33:12.293Z,1.30
2019-02-20T11:36:09.064Z,1.23
2019-02-20T11:38:56.283Z,1.20
2019-02-20T11:41:50.675Z,1.20
2019-02-20T11:44:38.064Z,1.70
2019-02-20T11:47:33.578Z,1.60
2019-02-20T11:50:20.869Z,1.53
2019-02-20T11:53:16.264Z,1.50
2019-02-20T11:56:03.526Z,1.50
2019-02-20T11:58:57.597Z,1.50
2019-02-20T12:01:44.813Z,1.20
2019-02-20T12:04:41.857Z,1.30
2019-02-20T12:07:29.088Z,1.47
2019-02-20T12:10:25.216Z,1.03
2019-02-20T12:13:12.700Z,1.20
2019-02-20T12:16:08.079Z,1.30
2019-02-20T12:18:55.266Z,1.43
2019-02-20T12:21:49.471Z,0.97
2019-02-20T12:24:40.992Z,1.10
2019-02-20T12:27:42.264Z,1.10
2019-02-20T12:30:29.248Z,1.10
2019-02-20T12:33:30.424Z,1.00
2019-02-20T12:36:19.052Z,1.23
2019-02-20T12:39:13.979Z,1.17
2019-02-20T12:42:03.884Z,1.20
2019-02-20T12:44:58.617Z,0.90
2019-02-20T12:47:46.289Z,1.17
2019-02-20T12:50:40.748Z,0.90
2019-02-20T12:53:27.838Z,0.97
2019-02-20T12:56:22.506Z,1.23
2019-02-20T12:59:09.905Z,0.80
2019-02-20T13:02:03.613Z,0.90
2019-02-20T13:04:51.097Z,0.97
2019-02-20T13:07:47.025Z,0.80
2019-02-20T13:10:35.073Z,0.93
2019-02-20T13:13:29.677Z,0.90
2019-02-20T13:16:17.300Z,0.70
2019-02-20T13:19:11.186Z,1.00
2019-02-20T13:21:58.406Z,0.80
2019-02-20T13:24:52.714Z,0.77
2019-02-20T13:27:47.098Z,0.77
2019-02-20T13:30:40.565Z,0.90
2019-02-20T13:33:30.039Z,0.60
2019-02-20T13:36:30.486Z,0.53
2019-02-20T13:39:17.932Z,0.60
2019-02-20T13:42:12.008Z,0.60
2019-02-20T13:44:59.091Z,0.60
2019-02-20T13:47:52.675Z,0.70
2019-02-20T13:50:39.824Z,0.43
2019-02-20T13:53:34.053Z,0.40
2019-02-20T13:56:21.502Z,0.73
2019-02-20T13:59:16.207Z,0.40
2019-02-20T14:02:03.685Z,0.57
2019-02-20T14:04:57.866Z,0.50
2019-02-20T14:07:45.570Z,0.53
2019-02-20T14:10:39.927Z,0.57
2019-02-20T14:13:27.317Z,0.57
2019-02-20T14:16:20.890Z,0.50
2019-02-20T14:19:08.374Z,0.50
2019-02-20T14:22:02.420Z,0.30
2019-02-20T14:24:49.755Z,0.40
2019-02-20T14:27:44.905Z,0.50
2019-02-20T14:30:39.130Z,0.50
2019-02-20T14:33:35.098Z,0.50
2019-02-20T14:36:22.897Z,0.70
2019-02-20T14:39:23.671Z,0.43
2019-02-20T14:42:11.194Z,0.50
2019-02-20T14:45:11.581Z,0.40
2019-02-20T14:48:00.956Z,0.20
2019-02-20T14:50:54.266Z,0.40
2019-02-20T14:53:41.780Z,0.37
2019-02-20T14:56:36.050Z,0.53
2019-02-20T14:59:23.174Z,0.30
2019-02-20T15:02:20.729Z,0.30
2019-02-20T15:05:08.326Z,0.40
2019-02-20T15:08:03.330Z,0.40
2019-02-20T15:10:50.535Z,0.30
2019-02-20T15:13:45.031Z,0.30
2019-02-20T15:16:32.445Z,0.40
2019-02-20T15:19:27.157Z,0.37
2019-02-20T15:22:14.389Z,0.40
2019-02-20T15:25:09.526Z,0.40
2019-02-20T15:27:57.240Z,0.20
2019-02-20T15:30:58.029Z,0.40
2019-02-20T15:33:45.406Z,0.17
2019-02-20T15:36:39.523Z,0.20
2019-02-20T15:39:29.342Z,0.40
2019-02-20T15:42:31.924Z,0.40
2019-02-20T15:45:19.180Z,0.40
2019-02-20T15:48:23.026Z,0.50
2019-02-20T15:51:05.837Z,0.30
2019-02-20T15:54:00.181Z,0.23
2019-02-20T15:56:47.200Z,0.30
2019-02-20T15:59:43.819Z,0.37
2019-02-20T16:02:30.885Z,0.40
2019-02-20T16:05:29.000Z,0.23
2019-02-20T16:08:16.424Z,0.43
2019-02-20T16:11:10.570Z,0.40
2019-02-20T16:13:57.972Z,0.30
2019-02-20T16:16:52.228Z,0.40
2019-02-20T16:19:39.607Z,0.30
2019-02-20T16:22:36.618Z,0.20
2019-02-20T16:25:23.901Z,0.40
2019-02-20T16:28:18.518Z,0.40
2019-02-20T16:31:12.594Z,0.33
2019-02-20T16:34:16.863Z,0.40
2019-02-20T16:37:04.282Z,0.30
2019-02-20T16:39:58.956Z,0.30
2019-02-20T16:42:53.508Z,0.40
2019-02-20T16:45:47.565Z,0.50
2019-02-20T16:48:36.967Z,0.40
2019-02-20T16:51:30.268Z,0.40
2019-02-20T16:54:19.379Z,0.40
2019-02-20T16:57:13.859Z,0.40
2019-02-20T17:00:00.761Z,0.20
2019-02-20T17:02:56.756Z,0.40
2019-02-20T17:05:43.642Z,0.37
2019-02-20T17:08:38.573Z,0.60
2019-02-20T17:11:26.013Z,0.40
2019-02-20T17:14:20.350Z,0.47
2019-02-20T17:17:07.581Z,0.40
2019-02-20T17:20:02.297Z,0.30
2019-02-20T17:22:49.245Z,0.40
2019-02-20T17:28:40.133Z,0.47
2019-02-20T17:31:34.249Z,0.47
2019-02-20T17:34:35.452Z,0.60
2019-02-20T17:37:25.546Z,0.47
2019-02-20T17:40:20.538Z,0.50
2019-02-20T17:43:14.101Z,0.60
2019-02-20T17:46:09.739Z,0.60
2019-02-20T17:48:56.809Z,0.60
2019-02-20T17:51:54.065Z,0.53
2019-02-20T17:54:41.433Z,0.30
2019-02-20T17:57:35.424Z,0.70
2019-02-20T18:00:28.312Z,0.70
2019-02-20T18:03:22.131Z,0.60
2019-02-20T18:06:09.579Z,0.53
2019-02-20T18:09:06.195Z,0.40
2019-02-20T18:11:53.261Z,0.50
2019-02-20T18:14:47.131Z,0.60
2019-02-20T18:17:34.071Z,0.73
2019-02-20T18:20:27.890Z,0.50
2019-02-20T18:26:33.729Z,0.60
2019-02-20T18:29:20.991Z,0.50
2019-02-20T18:32:21.859Z,0.40
2019-02-20T18:35:10.292Z,0.50
2019-02-20T18:38:04.255Z,0.67
2019-02-20T18:40:51.255Z,0.50
2019-02-20T18:43:44.759Z,0.57
2019-02-20T18:46:38.630Z,0.77
2019-02-20T18:49:32.138Z,0.70
2019-02-20T18:52:19.514Z,0.60
2019-02-20T18:55:15.205Z,0.63
2019-02-20T18:58:02.610Z,0.70
2019-02-20T19:01:00.053Z,0.73
2019-02-20T19:03:47.166Z,0.60
2019-02-20T19:06:41.384Z,0.73
2019-02-20T19:09:29.095Z,0.70
2019-02-20T19:12:28.130Z,0.53
2019-02-20T19:15:18.664Z,0.80
2019-02-20T19:18:26.379Z,0.80
2019-02-20T19:21:17.226Z,0.50
2019-02-20T19:24:18.624Z,0.70
2019-02-20T19:27:15.278Z,0.77
2019-02-20T19:30:20.650Z,0.70
2019-02-20T19:33:21.064Z,0.77
2019-02-20T19:36:27.227Z,0.70
2019-02-20T19:39:16.170Z,0.57
2019-02-20T19:42:11.713Z,0.60
2019-02-20T19:45:17.112Z,0.60
2019-02-20T19:48:23.310Z,0.90
2019-02-20T19:51:27.684Z,1.13
2019-02-20T19:54:32.337Z,0.80
2019-02-20T19:57:22.834Z,0.87
2019-02-20T20:00:37.270Z,0.70
2019-02-20T20:03:30.757Z,0.80
2019-02-20T20:06:25.691Z,0.80
2019-02-20T20:09:26.857Z,0.90
2019-02-20T20:12:40.694Z,1.03
2019-02-20T20:15:29.816Z,1.10
2019-02-20T20:18:42.951Z,0.73
2019-02-20T20:21:31.679Z,0.90
2019-02-20T20:24:27.674Z,1.17
2019-02-20T20:27:31.505Z,1.00
2019-02-20T20:30:30.378Z,1.20
2019-02-20T20:33:42.227Z,0.90
2019-02-20T20:36:59.774Z,0.80
2019-02-20T20:40:07.818Z,1.30
2019-02-20T20:43:12.673Z,0.73
2019-02-20T20:46:13.929Z,0.70
2019-02-20T20:49:28.967Z,1.00
2019-02-20T20:52:33.370Z,1.13
2019-02-20T20:55:45.902Z,1.10
2019-02-20T20:58:38.431Z,0.90
2019-02-20T21:01:36.847Z,1.13
2019-02-20T21:04:29.746Z,1.03
2019-02-20T21:07:30.960Z,1.03
2019-02-20T21:10:21.674Z,0.87
2019-02-20T21:13:35.241Z,1.07
2019-02-20T21:16:30.014Z,1.20
2019-02-20T21:19:31.499Z,0.90
2019-02-20T21:22:38.295Z,0.97
2019-02-20T21:25:39.697Z,1.20
2019-02-20T21:28:34.700Z,1.03
2019-02-20T21:31:31.792Z,1.27
2019-02-20T21:34:36.473Z,1.03
2019-02-20T21:37:37.706Z,1.03
2019-02-20T21:40:29.541Z,1.10
2019-02-20T21:43:41.809Z,1.20
2019-02-20T21:46:45.044Z,1.20
2019-02-20T21:49:44.932Z,1.40
2019-02-20T21:52:57.415Z,1.30
2019-02-20T21:56:11.213Z,1.30
2019-02-20T21:59:09.199Z,1.37
2019-02-20T22:02:13.749Z,1.07
2019-02-20T22:05:20.800Z,1.17
2019-02-20T22:08:16.411Z,1.30
2019-02-20T22:11:05.007Z,1.10
2019-02-20T22:14:17.551Z,1.40
2019-02-20T22:17:09.527Z,1.10
2019-02-20T22:20:24.068Z,1.27
2019-02-20T22:23:12.832Z,1.50
2019-02-20T22:26:08.257Z,1.30
2019-02-20T22:28:57.211Z,1.30
2019-02-20T22:31:56.087Z,1.30
2019-02-20T22:35:06.946Z,1.50
2019-02-20T22:38:09.170Z,1.30
2019-02-20T22:41:05.466Z,1.20
2019-02-20T22:44:19.589Z,1.43
2019-02-20T22:47:26.807Z,1.43
2019-02-20T22:50:22.414Z,1.27
2019-02-20T22:53:19.578Z,1.47
2019-02-20T22:56:15.041Z,1.50
2019-02-20T22:59:04.166Z,1.30
2019-02-20T23:02:09.139Z,1.13
2019-02-20T23:05:14.904Z,1.40
2019-02-20T23:08:13.542Z,1.23
2019-02-20T23:11:08.606Z,1.67
2019-02-20T23:14:07.732Z,1.30
2019-02-20T23:16:56.130Z,1.30
2019-02-20T23:19:49.733Z,1.30
2019-02-20T23:22:38.952Z,1.13
2019-02-20T23:25:32.941Z,1.40
2019-02-20T23:28:19.968Z,1.40
2019-02-20T23:31:15.892Z,1.60
2019-02-20T23:34:03.216Z,1.73
2019-02-20T23:37:02.906Z,1.50
2019-02-20T23:39:57.153Z,1.60
2019-02-20T23:42:53.845Z,1.50
2019-02-20T23:45:40.878Z,1.60
2019-02-20T23:48:38.113Z,1.53
2019-02-20T23:51:25.272Z,1.40
2019-02-20T23:54:26.964Z,1.70
2019-02-20T23:57:14.344Z,1.30
